Aviation Digital Data Service (ADDS)

Output produced by METARs form (0518 UTC 25 June 2017)
found at http://aviationweather.gov/adds/metars/
 
KBWI 242320Z 2500/2606 28007KT P6SM SCT050 SCT200 
     FM250300 33005KT P6SM SCT050 SCT200 
     FM250900 VRB03KT P6SM FEW050 SCT200 
     FM251400 29010G18KT P6SM SCT060 
     FM252300 29008KT P6SM FEW250